createdAt,value
2022-12-03T00:01:53.143Z,12.35
2022-12-03T00:04:19.984Z,12.90
2022-12-03T00:06:46.883Z,12.77
2022-12-03T00:09:13.870Z,12.15
2022-12-03T00:11:40.758Z,13.30
2022-12-03T00:14:07.695Z,10.60
2022-12-03T00:16:34.666Z,13.15
2022-12-03T00:19:01.660Z,13.95
2022-12-03T00:21:28.609Z,12.93
2022-12-03T00:23:55.473Z,13.65
2022-12-03T00:26:22.475Z,14.30
2022-12-03T00:28:49.380Z,14.68
2022-12-03T00:31:16.593Z,12.93
2022-12-03T00:33:43.559Z,13.90
2022-12-03T00:36:10.655Z,13.10
2022-12-03T00:38:37.594Z,13.48
2022-12-03T00:41:04.647Z,13.20
2022-12-03T00:43:31.526Z,13.63
2022-12-03T00:45:58.582Z,13.75
2022-12-03T00:48:25.697Z,15.18
2022-12-03T00:50:52.673Z,13.85
2022-12-03T00:53:19.534Z,15.55
2022-12-03T00:55:46.629Z,15.10
2022-12-03T00:58:13.592Z,15.68
2022-12-03T01:00:40.445Z,13.95
2022-12-03T01:03:07.413Z,14.30
2022-12-03T01:05:34.318Z,12.90
2022-12-03T01:08:01.305Z,12.35
2022-12-03T01:10:28.491Z,14.63
2022-12-03T01:12:55.661Z,14.35
2022-12-03T01:15:22.475Z,14.00
2022-12-03T01:17:49.428Z,13.45
2022-12-03T01:20:16.363Z,13.43
2022-12-03T01:22:43.332Z,13.95
2022-12-03T01:25:10.567Z,13.63
2022-12-03T01:27:37.660Z,13.77
2022-12-03T01:30:05.592Z,14.00
2022-12-03T01:32:32.547Z,13.02
2022-12-03T01:34:59.488Z,13.93
2022-12-03T01:37:27.022Z,13.40
2022-12-03T01:39:54.374Z,14.32
2022-12-03T01:42:26.918Z,13.98
2022-12-03T01:44:57.027Z,13.38
2022-12-03T01:47:36.308Z,13.95
2022-12-03T01:50:08.423Z,14.30
2022-12-03T01:52:38.689Z,14.60
2022-12-03T01:55:11.639Z,12.88
2022-12-03T01:57:54.355Z,13.88
2022-12-03T02:00:23.581Z,13.70
2022-12-03T02:03:00.700Z,14.68
2022-12-03T02:05:30.120Z,14.15
2022-12-03T02:07:58.264Z,16.23
2022-12-03T02:10:36.278Z,15.57
2022-12-03T02:13:08.448Z,14.13
2022-12-03T02:15:39.282Z,14.57
2022-12-03T02:18:07.689Z,14.00
2022-12-03T02:20:44.090Z,14.30
2022-12-03T02:23:44.898Z,14.40
2022-12-03T02:26:11.866Z,14.07
2022-12-03T02:28:39.070Z,14.73
2022-12-03T02:31:06.264Z,13.82
2022-12-03T02:33:33.590Z,14.05
2022-12-03T02:36:03.788Z,12.98
2022-12-03T02:38:33.966Z,13.30
2022-12-03T02:41:05.901Z,13.20
2022-12-03T02:43:33.162Z,13.23
2022-12-03T02:46:02.610Z,13.00
2022-12-03T02:48:35.988Z,13.35
2022-12-03T02:51:09.303Z,13.45
2022-12-03T02:53:44.650Z,12.88
2022-12-03T02:56:17.921Z,12.02
2022-12-03T02:58:47.098Z,11.57
2022-12-03T03:01:17.119Z,11.88
2022-12-03T03:03:46.663Z,11.60
2022-12-03T03:06:15.229Z,11.02
2022-12-03T03:08:43.032Z,12.07
2022-12-03T03:11:10.126Z,12.05
2022-12-03T03:13:38.002Z,12.40
2022-12-03T03:16:06.300Z,12.32
2022-12-03T03:18:35.712Z,12.50
2022-12-03T03:21:03.975Z,12.77
2022-12-03T03:23:31.020Z,11.77
2022-12-03T03:26:02.710Z,11.93
2022-12-03T03:28:30.496Z,11.18
2022-12-03T03:31:00.748Z,11.68
2022-12-03T03:33:27.897Z,11.48
2022-12-03T03:35:55.011Z,11.32
2022-12-03T03:38:23.925Z,12.23
2022-12-03T03:40:53.016Z,11.68
2022-12-03T03:43:22.178Z,12.73
2022-12-03T03:45:49.774Z,11.40
2022-12-03T03:48:17.369Z,12.23
2022-12-03T03:50:45.406Z,11.45
2022-12-03T03:53:13.081Z,11.38
2022-12-03T03:55:40.588Z,12.02
2022-12-03T03:58:07.730Z,12.20
2022-12-03T04:00:36.561Z,11.43
2022-12-03T04:03:04.799Z,12.20
2022-12-03T04:05:32.002Z,11.88
2022-12-03T04:07:59.501Z,13.15
2022-12-03T04:10:44.939Z,12.85
2022-12-03T04:13:11.935Z,12.90
2022-12-03T04:15:38.981Z,12.05
2022-12-03T04:18:24.706Z,12.38
2022-12-03T04:20:51.551Z,12.98
2022-12-03T04:23:18.430Z,11.65
2022-12-03T04:26:04.040Z,11.63
2022-12-03T04:28:49.377Z,12.45
2022-12-03T04:31:34.711Z,12.43
2022-12-03T04:34:20.293Z,13.55
2022-12-03T04:36:47.690Z,12.05
2022-12-03T04:39:14.739Z,11.77
2022-12-03T04:41:41.719Z,13.43
2022-12-03T04:44:34.782Z,12.73
2022-12-03T04:47:14.871Z,11.82
2022-12-03T04:49:47.678Z,12.45
2022-12-03T04:52:15.982Z,12.52
2022-12-03T04:54:43.491Z,12.27
2022-12-03T04:57:11.411Z,11.73
2022-12-03T04:59:39.042Z,12.85
2022-12-03T05:02:06.740Z,11.55
2022-12-03T05:04:34.080Z,11.43
2022-12-03T05:07:01.029Z,11.63
2022-12-03T05:09:28.133Z,12.82
2022-12-03T05:11:55.183Z,12.27
2022-12-03T05:14:22.214Z,12.85
2022-12-03T05:16:49.195Z,11.38
2022-12-03T05:19:16.164Z,12.65
2022-12-03T05:21:43.141Z,12.60
2022-12-03T05:24:09.991Z,13.30
2022-12-03T05:26:37.015Z,13.63
2022-12-03T05:29:03.969Z,13.63
2022-12-03T05:31:30.899Z,13.55
2022-12-03T05:33:57.950Z,13.27
2022-12-03T05:36:25.735Z,12.75
2022-12-03T05:38:52.973Z,12.15
2022-12-03T05:41:38.829Z,12.38
2022-12-03T05:44:06.568Z,12.82
2022-12-03T05:46:33.923Z,13.25
2022-12-03T05:49:07.160Z,12.98
2022-12-03T05:51:35.447Z,10.88
2022-12-03T05:54:02.902Z,11.07
2022-12-03T05:56:29.931Z,12.57
2022-12-03T05:58:57.028Z,14.23
2022-12-03T06:01:23.931Z,12.75
2022-12-03T06:03:51.047Z,13.50
2022-12-03T06:06:18.303Z,13.00
2022-12-03T06:08:45.195Z,12.82
2022-12-03T06:11:12.325Z,11.75
2022-12-03T06:13:39.435Z,12.18
2022-12-03T06:16:06.738Z,13.77
2022-12-03T06:18:33.906Z,14.80
2022-12-03T06:21:00.861Z,12.57
2022-12-03T06:23:27.938Z,11.80
2022-12-03T06:25:55.088Z,14.70
2022-12-03T06:28:22.040Z,12.63
2022-12-03T06:30:49.072Z,13.15
2022-12-03T06:33:16.145Z,13.90
2022-12-03T06:35:43.107Z,11.98
2022-12-03T06:38:10.217Z,12.13
2022-12-03T06:40:38.523Z,13.45
2022-12-03T06:43:05.494Z,13.18
2022-12-03T06:45:32.558Z,14.38
2022-12-03T06:47:59.573Z,13.32
2022-12-03T06:50:26.622Z,15.23
2022-12-03T06:52:53.863Z,15.20
2022-12-03T06:55:20.968Z,13.38
2022-12-03T06:57:47.883Z,15.00
2022-12-03T07:00:15.630Z,13.88
2022-12-03T07:02:44.841Z,13.57
2022-12-03T07:05:11.920Z,13.88
2022-12-03T07:07:39.495Z,15.23
2022-12-03T07:10:10.289Z,16.27
2022-12-03T07:12:38.178Z,13.90
2022-12-03T07:15:05.634Z,15.13
2022-12-03T07:17:32.797Z,14.90
2022-12-03T07:19:59.768Z,15.05
2022-12-03T07:22:26.711Z,15.27
2022-12-03T07:24:55.561Z,15.40
2022-12-03T07:27:23.107Z,14.23
2022-12-03T07:29:50.586Z,14.77
2022-12-03T07:32:18.112Z,14.38
2022-12-03T07:34:45.253Z,14.52
2022-12-03T07:37:12.704Z,15.07
2022-12-03T07:39:39.814Z,15.38
2022-12-03T07:42:07.093Z,15.30
2022-12-03T07:44:34.296Z,15.85
2022-12-03T07:47:01.705Z,15.10
2022-12-03T07:49:28.840Z,14.43
2022-12-03T07:51:57.260Z,15.15
2022-12-03T07:54:25.060Z,15.10
2022-12-03T07:56:57.916Z,14.93
2022-12-03T07:59:28.400Z,16.23
2022-12-03T08:01:56.275Z,17.63
2022-12-03T08:04:23.670Z,14.70
2022-12-03T08:06:50.765Z,14.23
2022-12-03T08:09:18.331Z,13.95
2022-12-03T08:11:49.238Z,15.00
2022-12-03T08:14:19.755Z,16.27
2022-12-03T08:16:47.910Z,16.15
2022-12-03T08:19:17.474Z,12.65
2022-12-03T08:21:45.050Z,11.98
2022-12-03T08:24:21.805Z,11.40
2022-12-03T08:26:50.179Z,11.68
2022-12-03T08:29:20.335Z,12.48
2022-12-03T08:31:52.870Z,13.43
2022-12-03T08:34:27.258Z,14.40
2022-12-03T08:37:03.150Z,14.73
2022-12-03T08:42:35.594Z,13.77
2022-12-03T08:45:25.450Z,14.68
2022-12-03T08:47:52.812Z,13.48
2022-12-03T08:50:33.667Z,10.13
2022-12-03T08:53:14.049Z,12.70
2022-12-03T08:55:53.237Z,12.65
2022-12-03T08:58:39.159Z,13.85
2022-12-03T09:01:09.080Z,12.63
2022-12-03T09:03:37.105Z,10.98
2022-12-03T09:06:06.118Z,11.23
2022-12-03T09:08:33.447Z,10.80
2022-12-03T09:11:01.475Z,11.77
2022-12-03T09:13:28.705Z,11.63
2022-12-03T09:15:55.772Z,12.93
2022-12-03T09:18:23.113Z,17.70
2022-12-03T09:20:50.883Z,19.55
2022-12-03T09:23:18.272Z,21.52
2022-12-03T09:25:45.564Z,16.83
2022-12-03T09:28:12.475Z,14.02
2022-12-03T09:30:42.328Z,14.18
2022-12-03T09:33:10.748Z,14.63
2022-12-03T09:35:41.638Z,14.20
2022-12-03T09:38:08.974Z,15.80
2022-12-03T09:40:37.383Z,15.18
2022-12-03T09:43:05.288Z,15.23
2022-12-03T09:45:32.886Z,15.75
2022-12-03T09:48:04.178Z,15.35
2022-12-03T09:50:32.374Z,13.40
2022-12-03T09:53:03.021Z,12.75
2022-12-03T09:55:31.185Z,12.93
2022-12-03T09:57:58.798Z,13.10
2022-12-03T10:00:31.916Z,12.57
2022-12-03T10:03:03.556Z,13.15
2022-12-03T10:05:31.149Z,13.18
2022-12-03T10:08:05.876Z,12.38
2022-12-03T10:10:34.673Z,12.90
2022-12-03T10:13:02.187Z,12.93
2022-12-03T10:15:29.594Z,12.02
2022-12-03T10:17:57.621Z,13.27
2022-12-03T10:20:26.236Z,11.85
2022-12-03T10:22:53.680Z,11.98
2022-12-03T10:25:22.843Z,12.65
2022-12-03T10:28:01.465Z,13.45
2022-12-03T10:30:29.743Z,12.40
2022-12-03T10:32:59.477Z,14.00
2022-12-03T10:35:43.314Z,12.85
2022-12-03T10:38:14.238Z,14.43
2022-12-03T10:40:41.774Z,14.30
2022-12-03T10:43:23.948Z,12.90
2022-12-03T10:46:04.715Z,13.43
2022-12-03T10:48:32.557Z,13.60
2022-12-03T10:51:13.798Z,12.95
2022-12-03T10:53:44.003Z,13.98
2022-12-03T10:56:22.629Z,12.88
2022-12-03T10:58:50.056Z,14.23
2022-12-03T11:01:19.908Z,15.68
2022-12-03T11:03:48.927Z,14.27
2022-12-03T11:06:19.120Z,14.38
2022-12-03T11:08:54.614Z,14.00
2022-12-03T11:11:31.515Z,13.70
2022-12-03T11:14:04.314Z,13.90
2022-12-03T11:16:41.089Z,12.18
2022-12-03T11:19:18.779Z,13.85
2022-12-03T11:22:10.025Z,12.93
2022-12-03T11:24:40.346Z,13.35
2022-12-03T11:27:09.385Z,14.38
2022-12-03T11:29:51.980Z,13.88
2022-12-03T11:32:44.320Z,16.23
2022-12-03T11:35:39.553Z,13.27
2022-12-03T11:38:38.777Z,14.45
2022-12-03T11:41:24.938Z,12.45
2022-12-03T11:43:59.158Z,12.80
2022-12-03T11:46:41.393Z,12.20
2022-12-03T11:49:22.619Z,13.93
2022-12-03T11:51:51.014Z,13.30
2022-12-03T11:54:22.061Z,13.30
2022-12-03T11:56:50.416Z,13.45
2022-12-03T11:59:18.618Z,12.98
2022-12-03T12:01:46.895Z,14.70
2022-12-03T12:04:35.676Z,15.57
2022-12-03T12:07:03.201Z,14.88
2022-12-03T12:09:54.493Z,13.10
2022-12-03T12:12:30.506Z,14.10
2022-12-03T12:14:59.276Z,13.98
2022-12-03T12:17:37.839Z,13.52
2022-12-03T12:20:14.005Z,12.13
2022-12-03T12:25:29.810Z,14.48
2022-12-03T12:27:58.973Z,14.38
2022-12-03T12:30:26.775Z,13.63
2022-12-03T12:33:03.723Z,14.70
2022-12-03T12:35:43.554Z,15.40
2022-12-03T12:38:18.407Z,15.50
2022-12-03T12:40:49.652Z,14.40
2022-12-03T12:43:26.735Z,13.65
2022-12-03T12:45:57.007Z,13.85
2022-12-03T12:48:35.390Z,14.00
2022-12-03T12:51:11.395Z,13.40
2022-12-03T12:53:45.203Z,14.63
2022-12-03T12:56:22.348Z,15.57
2022-12-03T12:58:50.169Z,14.95
2022-12-03T13:01:36.869Z,14.85
2022-12-03T13:04:15.783Z,13.48
2022-12-03T13:06:43.991Z,13.98
2022-12-03T13:09:25.849Z,16.08
2022-12-03T13:12:07.745Z,17.30
2022-12-03T13:14:37.710Z,15.80
2022-12-03T13:17:26.261Z,16.38
2022-12-03T13:20:03.698Z,14.82
2022-12-03T13:22:34.963Z,15.13
2022-12-03T13:25:50.515Z,13.60
2022-12-03T13:28:13.578Z,14.85
2022-12-03T13:30:41.041Z,16.40
2022-12-03T13:33:24.132Z,19.15
2022-12-03T13:35:52.800Z,17.33
2022-12-03T13:38:21.785Z,16.25
2022-12-03T13:40:59.288Z,17.08
2022-12-03T13:43:30.695Z,16.08
2022-12-03T13:45:58.431Z,15.52
2022-12-03T13:48:46.096Z,15.18
2022-12-03T13:51:26.685Z,15.23
2022-12-03T13:53:54.615Z,16.88
2022-12-03T13:56:30.282Z,14.68
2022-12-03T13:59:00.759Z,14.98
2022-12-03T14:01:28.584Z,16.27
2022-12-03T14:03:56.327Z,14.32
2022-12-03T14:06:23.831Z,15.40
2022-12-03T14:08:51.637Z,16.63
2022-12-03T14:11:37.836Z,16.75
2022-12-03T14:14:04.881Z,15.65
2022-12-03T14:16:33.669Z,15.50
2022-12-03T14:19:00.866Z,15.20
2022-12-03T14:21:28.215Z,13.50
2022-12-03T14:23:55.775Z,14.40
2022-12-03T14:26:23.215Z,14.73
2022-12-03T14:28:50.319Z,16.95
2022-12-03T14:31:17.399Z,15.15
2022-12-03T14:33:44.448Z,15.55
2022-12-03T14:36:11.789Z,14.43
2022-12-03T14:38:39.039Z,16.25
2022-12-03T14:41:26.372Z,15.60
2022-12-03T14:43:53.636Z,17.55
2022-12-03T14:46:22.459Z,14.90
2022-12-03T14:48:49.660Z,13.25
2022-12-03T14:51:17.349Z,15.27
2022-12-03T14:53:44.476Z,15.55
2022-12-03T14:56:11.840Z,17.45
2022-12-03T14:58:39.148Z,15.05
2022-12-03T15:01:06.986Z,16.07
2022-12-03T15:03:34.585Z,14.20
2022-12-03T15:06:02.125Z,14.82
2022-12-03T15:08:29.356Z,14.57
2022-12-03T15:10:58.956Z,16.88
2022-12-03T15:13:27.876Z,15.32
2022-12-03T15:15:55.639Z,15.98
2022-12-03T15:18:23.251Z,15.85
2022-12-03T15:20:50.804Z,14.75
2022-12-03T15:23:18.503Z,14.65
2022-12-03T15:25:45.996Z,15.23
2022-12-03T15:28:14.057Z,15.05
2022-12-03T15:30:41.713Z,15.13
2022-12-03T15:33:09.274Z,14.23
2022-12-03T15:35:38.443Z,15.45
2022-12-03T15:38:05.669Z,15.05
2022-12-03T15:40:33.569Z,14.88
2022-12-03T15:43:04.615Z,14.75
2022-12-03T15:45:32.623Z,14.52
2022-12-03T15:48:00.555Z,15.30
2022-12-03T15:50:28.422Z,16.38
2022-12-03T15:52:56.403Z,14.95
2022-12-03T15:55:23.691Z,15.85
2022-12-03T15:57:51.156Z,14.00
2022-12-03T16:00:18.861Z,14.90
2022-12-03T16:02:52.470Z,15.80
2022-12-03T16:05:24.650Z,15.32
2022-12-03T16:07:58.144Z,16.33
2022-12-03T16:10:26.205Z,16.92
2022-12-03T16:12:54.883Z,16.70
2022-12-03T16:15:27.056Z,17.65
2022-12-03T16:17:54.975Z,15.77
2022-12-03T16:20:26.045Z,17.30
2022-12-03T16:22:57.028Z,15.70
2022-12-03T16:25:24.540Z,17.35
2022-12-03T16:27:52.138Z,16.50
2022-12-03T16:30:20.863Z,16.08
2022-12-03T16:32:48.728Z,16.33
2022-12-03T16:35:17.621Z,16.35
2022-12-03T16:37:45.690Z,16.67
2022-12-03T16:40:12.904Z,18.48
2022-12-03T16:42:40.241Z,16.05
2022-12-03T16:45:11.151Z,15.88
2022-12-03T16:47:38.895Z,17.45
2022-12-03T16:50:15.868Z,16.20
2022-12-03T16:52:49.908Z,17.85
2022-12-03T16:55:16.987Z,15.75
2022-12-03T16:57:44.404Z,17.23
2022-12-03T17:00:11.885Z,17.10
2022-12-03T17:02:38.948Z,16.85
2022-12-03T17:05:07.153Z,15.98
2022-12-03T17:07:34.697Z,15.15
2022-12-03T17:10:04.326Z,15.82
2022-12-03T17:13:07.204Z,15.52
2022-12-03T17:15:21.607Z,15.95
2022-12-03T17:17:49.046Z,15.43
2022-12-03T17:20:18.142Z,15.43
2022-12-03T17:22:46.626Z,17.17
2022-12-03T17:25:14.156Z,16.70
2022-12-03T17:27:45.147Z,18.27
2022-12-03T17:30:13.337Z,16.83
2022-12-03T17:32:40.591Z,17.63
2022-12-03T17:35:09.021Z,17.10
2022-12-03T17:37:36.719Z,17.00
2022-12-03T17:40:08.637Z,17.70
2022-12-03T17:42:36.546Z,17.20
2022-12-03T17:45:04.069Z,16.45
2022-12-03T17:47:31.948Z,16.63
2022-12-03T17:49:59.139Z,17.23
2022-12-03T17:52:26.332Z,15.13
2022-12-03T17:55:12.788Z,14.07
2022-12-03T17:57:40.748Z,14.30
2022-12-03T18:00:24.869Z,14.38
2022-12-03T18:02:52.118Z,16.42
2022-12-03T18:05:20.618Z,15.47
2022-12-03T18:07:48.356Z,16.67
2022-12-03T18:10:16.798Z,16.97
2022-12-03T18:12:44.364Z,15.67
2022-12-03T18:15:12.164Z,16.77
2022-12-03T18:17:40.061Z,16.07
2022-12-03T18:20:08.489Z,17.63
2022-12-03T18:22:36.307Z,17.90
2022-12-03T18:25:04.784Z,17.17
2022-12-03T18:27:31.951Z,17.70
2022-12-03T18:30:00.468Z,18.23
2022-12-03T18:32:29.717Z,16.13
2022-12-03T18:34:58.120Z,16.30
2022-12-03T18:37:30.086Z,16.90
2022-12-03T18:39:58.356Z,17.03
2022-12-03T18:42:26.123Z,16.30
2022-12-03T18:44:55.994Z,17.67
2022-12-03T18:47:27.303Z,21.13
2022-12-03T18:49:56.284Z,19.40
2022-12-03T18:52:25.382Z,21.45
2022-12-03T18:54:53.324Z,19.93
2022-12-03T18:57:22.882Z,21.37
2022-12-03T18:59:50.386Z,17.80
2022-12-03T19:03:01.995Z,18.87
2022-12-03T19:05:14.596Z,17.90
2022-12-03T19:07:43.989Z,19.07
2022-12-03T19:10:12.361Z,18.50
2022-12-03T19:12:39.587Z,17.90
2022-12-03T19:15:09.273Z,18.13
2022-12-03T19:17:41.382Z,19.33
2022-12-03T19:20:10.875Z,18.63
2022-12-03T19:22:38.339Z,17.48
2022-12-03T19:25:06.015Z,18.33
2022-12-03T19:27:33.763Z,18.40
2022-12-03T19:30:01.354Z,19.85
2022-12-03T19:32:28.957Z,20.15
2022-12-03T19:34:56.383Z,18.67
2022-12-03T19:37:25.618Z,17.00
2022-12-03T19:39:56.488Z,18.02
2022-12-03T19:42:24.154Z,16.42
2022-12-03T19:44:52.014Z,17.63
2022-12-03T19:47:20.221Z,19.50
2022-12-03T19:49:48.057Z,19.77
2022-12-03T19:52:15.160Z,19.38
2022-12-03T19:54:42.626Z,18.52
2022-12-03T19:57:09.818Z,17.42
2022-12-03T19:59:37.285Z,17.67
2022-12-03T20:02:04.704Z,17.55
2022-12-03T20:04:32.096Z,16.23
2022-12-03T20:06:59.476Z,16.55
2022-12-03T20:09:26.866Z,16.15
2022-12-03T20:11:54.273Z,15.90
2022-12-03T20:14:22.234Z,18.60
2022-12-03T20:16:50.562Z,18.85
2022-12-03T20:19:18.825Z,18.35
2022-12-03T20:21:46.673Z,15.73
2022-12-03T20:24:17.174Z,17.48
2022-12-03T20:26:46.575Z,16.20
2022-12-03T20:29:14.069Z,16.70
2022-12-03T20:31:41.301Z,16.65
2022-12-03T20:34:10.140Z,16.45
2022-12-03T20:36:37.888Z,16.40
2022-12-03T20:39:07.519Z,17.92
2022-12-03T20:41:36.973Z,16.95
2022-12-03T20:44:06.573Z,17.42
2022-12-03T20:46:34.546Z,17.23
2022-12-03T20:49:02.079Z,16.25
2022-12-03T20:51:31.033Z,18.00
2022-12-03T20:53:59.924Z,17.02
2022-12-03T20:56:41.267Z,16.30
2022-12-03T20:59:14.048Z,17.42
2022-12-03T21:01:42.545Z,16.17
2022-12-03T21:04:10.804Z,17.67
2022-12-03T21:06:38.830Z,16.20
2022-12-03T21:09:07.316Z,18.05
2022-12-03T21:11:36.185Z,18.58
2022-12-03T21:14:04.360Z,17.33
2022-12-03T21:17:05.904Z,17.08
2022-12-03T21:19:23.969Z,17.77
2022-12-03T21:21:51.133Z,17.67
2022-12-03T21:24:18.270Z,17.67
2022-12-03T21:26:45.448Z,18.75
2022-12-03T21:29:13.007Z,18.48
2022-12-03T21:31:40.288Z,18.08
2022-12-03T21:34:09.804Z,17.67
2022-12-03T21:36:37.029Z,17.85
2022-12-03T21:39:05.347Z,17.50
2022-12-03T21:41:32.461Z,17.48
2022-12-03T21:44:02.225Z,18.40
2022-12-03T21:47:10.837Z,16.80
2022-12-03T21:49:19.927Z,19.40
2022-12-03T21:51:48.908Z,17.92
2022-12-03T21:54:16.800Z,18.45
2022-12-03T21:56:44.164Z,19.38
2022-12-03T21:59:11.181Z,18.35
2022-12-03T22:01:42.762Z,18.95
2022-12-03T22:04:12.990Z,19.80
2022-12-03T22:06:40.005Z,18.90
2022-12-03T22:09:07.486Z,19.23
2022-12-03T22:11:34.892Z,18.55
2022-12-03T22:14:05.020Z,18.45
2022-12-03T22:16:32.357Z,19.60
2022-12-03T22:18:59.462Z,18.20
2022-12-03T22:21:26.615Z,20.48
2022-12-03T22:23:53.663Z,19.55
2022-12-03T22:26:20.926Z,20.77
2022-12-03T22:28:50.908Z,20.30
2022-12-03T22:31:19.292Z,19.15
2022-12-03T22:33:48.622Z,18.52
2022-12-03T22:36:20.916Z,18.60
2022-12-03T22:38:50.114Z,16.65
2022-12-03T22:41:17.395Z,17.48
2022-12-03T22:43:45.788Z,16.27
2022-12-03T22:46:13.388Z,16.23
2022-12-03T22:48:42.244Z,16.38
2022-12-03T22:51:21.445Z,16.55
2022-12-03T22:53:48.981Z,16.27
2022-12-03T22:56:17.338Z,15.45
2022-12-03T22:58:44.280Z,16.88
2022-12-03T23:01:39.399Z,17.08
2022-12-03T23:04:08.131Z,15.88
2022-12-03T23:06:36.770Z,16.38
2022-12-03T23:09:05.124Z,16.92
2022-12-03T23:11:32.125Z,15.85
2022-12-03T23:13:59.312Z,17.40
2022-12-03T23:16:29.550Z,16.48
2022-12-03T23:18:59.766Z,15.98
2022-12-03T23:21:30.644Z,14.88
2022-12-03T23:23:59.696Z,17.10
2022-12-03T23:26:27.198Z,16.35
2022-12-03T23:28:54.609Z,16.45
2022-12-03T23:31:27.515Z,15.32
2022-12-03T23:33:55.489Z,16.00
2022-12-03T23:36:24.807Z,16.08
2022-12-03T23:38:51.799Z,14.93
2022-12-03T23:41:20.837Z,16.42
2022-12-03T23:43:47.934Z,16.17
2022-12-03T23:46:20.851Z,15.80
2022-12-03T23:48:47.984Z,15.40
2022-12-03T23:51:17.813Z,16.10
2022-12-03T23:53:45.131Z,15.52
2022-12-03T23:56:18.615Z,14.77
2022-12-03T23:58:46.655Z,15.55
